Time,TemperatureF,DewpointF,PressureIn,WindDirection,WindDirectionDegrees,WindSpeedMPH,WindSpeedGustMPH,Humidity,HourlyPrecipIn,Conditions,Clouds,dailyrainin,SolarRadiationWatts/m^2,SoftwareType,DateUTC
2013-01-23 00:00:00,18.0,11.1,29.74,NE,48,0.0,0.0,74,0.00,OVC,OVC,0.00,0.0,WeatherDisplay:10.37,2013-01-22 23:00:00,
2013-01-23 00:10:00,18.0,11.1,29.74,ESE,112,0.0,0.0,74,0.00,OVC,OVC,0.00,0.0,WeatherDisplay:10.37,2013-01-22 23:10:00,
2013-01-23 00:20:00,18.0,11.1,29.74,ESE,102,0.0,0.0,74,0.00,OVC,OVC,0.00,0.0,WeatherDisplay:10.37,2013-01-22 23:20:00,
2013-01-23 00:30:00,18.0,11.1,29.74,East,98,0.0,0.0,74,0.00,OVC,OVC,0.00,0.0,WeatherDisplay:10.37,2013-01-22 23:30:00,
2013-01-23 00:40:00,18.0,11.1,29.74,NE,44,0.0,0.0,74,0.00,OVC,OVC,0.00,0.0,WeatherDisplay:10.37,2013-01-22 23:40:00,
2013-01-23 00:50:00,18.0,11.1,29.71,ESE,110,0.0,0.0,74,0.00,OVC,OVC,0.00,0.0,WeatherDisplay:10.37,2013-01-22 23:50:00,
2013-01-23 01:00:00,18.0,11.1,29.71,NNE,33,0.0,0.0,74,0.00,OVC,OVC,0.00,0.0,WeatherDisplay:10.37,2013-01-23 00:00:00,
2013-01-23 01:10:00,18.0,11.1,29.71,NNE,25,0.0,0.0,74,0.00,OVC,OVC,0.00,0.0,WeatherDisplay:10.37,2013-01-23 00:10:00,
2013-01-23 01:20:00,18.0,11.1,29.71,SSE,147,0.0,0.0,74,0.00,OVC,OVC,0.00,0.0,WeatherDisplay:10.37,2013-01-23 00:20:00,
2013-01-23 01:30:00,18.1,11.2,29.71,SE,124,0.0,0.0,74,0.00,OVC,OVC,0.00,0.0,WeatherDisplay:10.37,2013-01-23 00:30:00,
2013-01-23 01:40:00,18.1,11.2,29.71,SE,125,0.0,0.0,74,0.00,OVC,OVC,0.00,0.0,WeatherDisplay:10.37,2013-01-23 00:40:00,
2013-01-23 01:50:00,18.1,11.2,29.71,North,1,0.0,0.0,74,0.00,OVC,OVC,0.00,0.0,WeatherDisplay:10.37,2013-01-23 00:50:00,
2013-01-23 02:00:00,18.0,11.1,29.71,North,355,0.0,0.0,74,0.00,OVC,OVC,0.00,0.0,WeatherDisplay:10.37,2013-01-23 01:00:00,
2013-01-23 02:10:00,18.0,11.1,29.71,SE,127,0.0,0.0,74,0.00,OVC,OVC,0.00,0.0,WeatherDisplay:10.37,2013-01-23 01:10:00,
2013-01-23 02:20:00,18.0,11.1,29.74,SSE,150,0.0,0.0,74,0.00,OVC,OVC,0.00,0.0,WeatherDisplay:10.37,2013-01-23 01:20:00,
2013-01-23 02:30:00,18.0,11.1,29.74,SSE,147,0.0,0.0,74,0.00,OVC,OVC,0.00,0.0,WeatherDisplay:10.37,2013-01-23 01:30:00,
2013-01-23 02:40:00,17.8,10.9,29.74,East,93,0.0,0.0,74,0.00,OVC,OVC,0.00,0.0,WeatherDisplay:10.37,2013-01-23 01:40:00,
2013-01-23 02:50:00,17.6,10.7,29.74,NE,38,0.0,0.0,74,0.00,OVC,OVC,0.00,0.0,WeatherDisplay:10.37,2013-01-23 01:50:00,
2013-01-23 03:00:00,17.6,10.7,29.74,East,79,0.0,0.0,74,0.00,OVC,OVC,0.00,0.0,WeatherDisplay:10.37,2013-01-23 02:00:00,
2013-01-23 03:10:00,17.6,10.7,29.74,SSE,151,0.0,0.0,74,0.00,OVC,OVC,0.00,0.0,WeatherDisplay:10.37,2013-01-23 02:10:00,
2013-01-23 03:20:00,17.8,10.9,29.74,SE,132,0.0,0.0,74,0.00,OVC,OVC,0.00,0.0,WeatherDisplay:10.37,2013-01-23 02:20:00,
2013-01-23 03:30:00,17.8,10.9,29.74,SE,126,0.0,0.0,74,0.00,OVC,OVC,0.00,0.0,WeatherDisplay:10.37,2013-01-23 02:30:00,
2013-01-23 03:40:00,17.8,10.9,29.74,ESE,108,0.0,0.0,74,0.00,OVC,OVC,0.00,0.0,WeatherDisplay:10.37,2013-01-23 02:40:00,
2013-01-23 03:50:00,17.8,11.2,29.71,ESE,118,0.0,0.0,75,0.00,OVC,OVC,0.00,0.0,WeatherDisplay:10.37,2013-01-23 02:50:00,
2013-01-23 04:00:00,18.0,11.4,29.71,NE,56,0.0,0.0,75,0.00,OVC,OVC,0.00,0.0,WeatherDisplay:10.37,2013-01-23 03:00:00,
2013-01-23 04:10:00,18.0,11.4,29.71,SE,132,0.0,0.0,75,0.00,OVC,OVC,0.00,0.0,WeatherDisplay:10.37,2013-01-23 03:10:00,
2013-01-23 04:20:00,18.0,11.4,29.74,ENE,68,0.0,0.0,75,0.00,OVC,OVC,0.00,0.0,WeatherDisplay:10.37,2013-01-23 03:20:00,
2013-01-23 04:30:00,18.0,11.4,29.74,ESE,105,0.0,0.0,75,0.00,OVC,OVC,0.00,0.0,WeatherDisplay:10.37,2013-01-23 03:30:00,
2013-01-23 04:40:00,18.0,11.1,29.74,ESE,119,0.0,0.0,74,0.00,OVC,OVC,0.00,0.0,WeatherDisplay:10.37,2013-01-23 03:40:00,
2013-01-23 04:50:00,18.0,11.1,29.74,SE,143,0.0,0.0,74,0.00,OVC,OVC,0.00,0.0,WeatherDisplay:10.37,2013-01-23 03:50:00,
2013-01-23 05:00:00,18.0,11.1,29.74,East,92,0.0,0.0,74,0.00,OVC,OVC,0.00,0.0,WeatherDisplay:10.37,2013-01-23 04:00:00,
2013-01-23 05:10:00,17.8,10.9,29.74,ESE,122,0.0,0.0,74,0.00,OVC,OVC,0.00,0.0,WeatherDisplay:10.37,2013-01-23 04:10:00,
2013-01-23 05:20:00,17.8,10.9,29.74,SE,142,0.0,0.0,74,0.00,OVC,OVC,0.00,0.0,WeatherDisplay:10.37,2013-01-23 04:20:00,
2013-01-23 05:30:00,18.0,11.4,29.74,ESE,121,0.0,0.0,75,0.00,OVC,OVC,0.00,0.0,WeatherDisplay:10.37,2013-01-23 04:30:00,
2013-01-23 05:40:00,18.0,11.4,29.74,NE,50,0.0,0.0,75,0.00,OVC,OVC,0.00,0.0,WeatherDisplay:10.37,2013-01-23 04:40:00,
2013-01-23 05:50:00,18.0,11.4,29.74,SSE,154,0.0,0.0,75,0.00,OVC,OVC,0.00,0.0,WeatherDisplay:10.37,2013-01-23 04:50:00,
2013-01-23 06:00:00,18.0,11.4,29.74,NE,54,0.0,0.0,75,0.00,OVC,OVC,0.00,0.0,WeatherDisplay:10.37,2013-01-23 05:00:00,
2013-01-23 06:10:00,18.0,11.4,29.74,NNE,28,0.0,0.0,75,0.00,OVC,OVC,0.00,0.0,WeatherDisplay:10.37,2013-01-23 05:10:00,
2013-01-23 06:20:00,18.0,11.4,29.74,South,175,0.0,0.0,75,0.00,OVC,OVC,0.00,0.0,WeatherDisplay:10.37,2013-01-23 05:20:00,
2013-01-23 06:30:00,18.0,11.4,29.74,SSW,200,0.0,0.0,75,0.00,OVC,OVC,0.00,0.0,WeatherDisplay:10.37,2013-01-23 05:30:00,
2013-01-23 06:40:00,18.0,11.4,29.74,North,5,0.0,0.0,75,0.00,OVC,OVC,0.00,0.0,WeatherDisplay:10.37,2013-01-23 05:40:00,
2013-01-23 06:50:00,18.0,11.7,29.74,ESE,118,0.0,0.0,76,0.00,OVC,OVC,0.00,0.0,WeatherDisplay:10.37,2013-01-23 05:50:00,
2013-01-23 07:00:00,18.0,11.7,29.74,ENE,57,0.0,0.0,76,0.00,OVC,OVC,0.00,0.0,WeatherDisplay:10.37,2013-01-23 06:00:00,
2013-01-23 07:10:00,18.0,11.7,29.74,North,10,0.0,0.0,76,0.00,OVC,OVC,0.00,0.0,WeatherDisplay:10.37,2013-01-23 06:10:00,
2013-01-23 07:20:00,18.0,11.7,29.74,East,93,0.0,0.0,76,0.00,OVC,OVC,0.00,0.0,WeatherDisplay:10.37,2013-01-23 06:20:00,
2013-01-23 07:30:00,18.1,11.8,29.74,ESE,106,0.0,0.0,76,0.00,OVC,OVC,0.00,0.0,WeatherDisplay:10.37,2013-01-23 06:30:00,
2013-01-23 07:40:00,18.0,11.7,29.74,ESE,118,0.0,0.0,76,0.00,OVC,OVC,0.00,0.0,WeatherDisplay:10.37,2013-01-23 06:40:00,
2013-01-23 07:50:00,18.0,11.7,29.74,ESE,104,0.0,0.0,76,0.00,OVC,OVC,0.00,0.0,WeatherDisplay:10.37,2013-01-23 06:50:00,
2013-01-23 08:00:00,18.0,11.7,29.74,SE,136,0.0,0.0,76,0.00,OVC,OVC,0.00,0.0,WeatherDisplay:10.37,2013-01-23 07:00:00,
2013-01-23 08:10:00,18.0,11.7,29.74,East,98,0.0,0.0,76,0.00,OVC,OVC,0.00,0.0,WeatherDisplay:10.37,2013-01-23 07:10:00,
2013-01-23 08:20:00,18.1,11.8,29.74,ESE,122,0.0,0.0,76,0.00,OVC,OVC,0.00,0.0,WeatherDisplay:10.37,2013-01-23 07:20:00,
2013-01-23 08:30:00,18.3,12.3,29.74,ESE,107,0.0,0.0,77,0.00,OVC,OVC,0.00,0.0,WeatherDisplay:10.37,2013-01-23 07:30:00,
2013-01-23 08:40:00,18.5,12.5,29.74,NE,38,0.0,0.0,77,0.00,OVC,OVC,0.00,0.0,WeatherDisplay:10.37,2013-01-23 07:40:00,
2013-01-23 08:50:00,18.5,12.5,29.74,East,80,0.0,0.0,77,0.00,OVC,OVC,0.00,0.0,WeatherDisplay:10.37,2013-01-23 07:50:00,
2013-01-23 09:00:00,18.7,12.7,29.74,SE,127,0.0,0.0,77,0.00,OVC,OVC,0.00,0.0,WeatherDisplay:10.37,2013-01-23 08:00:00,
2013-01-23 09:10:00,18.7,12.7,29.74,ESE,120,0.0,0.0,77,0.00,OVC,OVC,0.00,0.0,WeatherDisplay:10.37,2013-01-23 08:10:00,
2013-01-23 09:20:00,18.9,12.8,29.74,ESE,116,0.0,0.0,77,0.00,OVC,OVC,0.00,0.0,WeatherDisplay:10.37,2013-01-23 08:20:00,
2013-01-23 09:30:00,19.0,13.0,29.74,East,101,0.0,0.0,77,0.00,OVC,OVC,0.00,0.0,WeatherDisplay:10.37,2013-01-23 08:30:00,
2013-01-23 09:40:00,19.2,13.2,29.74,ESE,106,0.0,0.0,77,0.00,OVC,OVC,0.00,0.0,WeatherDisplay:10.37,2013-01-23 08:40:00,
2013-01-23 09:50:00,19.6,13.5,29.74,ESE,123,0.0,0.0,77,0.00,OVC,OVC,0.00,0.0,WeatherDisplay:10.37,2013-01-23 08:50:00,
2013-01-23 10:00:00,19.6,13.5,29.74,SE,138,0.0,0.0,77,0.00,OVC,OVC,0.00,0.0,WeatherDisplay:10.37,2013-01-23 09:00:00,
2013-01-23 10:10:00,19.6,13.5,29.74,ESE,122,0.0,0.0,77,0.00,OVC,OVC,0.00,0.0,WeatherDisplay:10.37,2013-01-23 09:10:00,
2013-01-23 10:20:00,20.3,14.2,29.74,ESE,114,0.0,0.0,77,0.00,OVC,OVC,0.00,0.0,WeatherDisplay:10.37,2013-01-23 09:20:00,
2013-01-23 10:30:00,20.5,14.4,29.74,ESE,117,0.0,0.0,77,0.00,OVC,OVC,0.00,0.0,WeatherDisplay:10.37,2013-01-23 09:30:00,
2013-01-23 10:40:00,20.5,14.4,29.74,ESE,108,0.0,0.0,77,0.00,OVC,OVC,0.00,0.0,WeatherDisplay:10.37,2013-01-23 09:40:00,
2013-01-23 10:50:00,21.2,15.1,29.74,ENE,77,0.0,0.0,77,0.00,OVC,OVC,0.00,0.0,WeatherDisplay:10.37,2013-01-23 09:50:00,
2013-01-23 11:00:00,21.2,15.1,29.74,East,87,0.0,0.0,77,0.00,OVC,OVC,0.00,0.0,WeatherDisplay:10.37,2013-01-23 10:00:00,
2013-01-23 11:10:00,21.2,15.1,29.74,ESE,113,0.0,0.0,77,0.00,OVC,OVC,0.00,0.0,WeatherDisplay:10.37,2013-01-23 10:10:00,
2013-01-23 11:20:00,21.4,15.0,29.74,ESE,108,0.0,0.0,76,0.00,OVC,OVC,0.00,0.0,WeatherDisplay:10.37,2013-01-23 10:20:00,
2013-01-23 11:30:00,21.6,15.2,29.74,ESE,105,0.0,0.0,76,0.00,OVC,OVC,0.00,0.0,WeatherDisplay:10.37,2013-01-23 10:30:00,
2013-01-23 11:40:00,21.9,15.5,29.74,East,92,0.0,0.0,76,0.00,OVC,OVC,0.00,0.0,WeatherDisplay:10.37,2013-01-23 10:40:00,
2013-01-23 11:50:00,22.3,15.9,29.74,East,100,0.0,0.0,76,0.00,OVC,OVC,0.00,0.0,WeatherDisplay:10.37,2013-01-23 10:50:00,
2013-01-23 12:00:00,22.3,15.9,29.74,NE,44,0.0,0.0,76,0.00,OVC,OVC,0.00,0.0,WeatherDisplay:10.37,2013-01-23 11:00:00,
2013-01-23 12:10:00,22.1,15.7,29.74,East,101,0.0,0.0,76,0.00,OVC,OVC,0.00,0.0,WeatherDisplay:10.37,2013-01-23 11:10:00,
2013-01-23 12:20:00,22.1,15.7,29.74,East,96,0.0,0.0,76,0.00,OVC,OVC,0.00,0.0,WeatherDisplay:10.37,2013-01-23 11:20:00,
2013-01-23 12:30:00,22.6,15.9,29.74,East,93,0.0,0.0,75,0.00,OVC,OVC,0.00,0.0,WeatherDisplay:10.37,2013-01-23 11:30:00,
2013-01-23 12:40:00,22.8,16.1,29.74,ENE,77,0.0,0.0,75,0.00,OVC,OVC,0.00,0.0,WeatherDisplay:10.37,2013-01-23 11:40:00,
2013-01-23 12:50:00,23.0,16.3,29.74,ESE,114,0.0,0.0,75,0.00,OVC,OVC,0.00,0.0,WeatherDisplay:10.37,2013-01-23 11:50:00,
2013-01-23 13:00:00,22.8,16.1,29.74,SE,129,0.0,0.0,75,0.00,OVC,OVC,0.00,0.0,WeatherDisplay:10.37,2013-01-23 12:00:00,
2013-01-23 13:10:00,23.2,16.4,29.74,ESE,119,0.0,0.0,75,0.00,OVC,OVC,0.00,0.0,WeatherDisplay:10.37,2013-01-23 12:10:00,
2013-01-23 13:20:00,23.5,16.8,29.74,ESE,116,0.0,0.0,75,0.00,OVC,OVC,0.00,0.0,WeatherDisplay:10.37,2013-01-23 12:20:00,
2013-01-23 13:30:00,23.5,16.8,29.74,ENE,60,0.0,0.0,75,0.00,OVC,OVC,0.00,0.0,WeatherDisplay:10.37,2013-01-23 12:30:00,
2013-01-23 13:40:00,23.5,16.8,29.74,ENE,75,0.0,0.0,75,0.00,OVC,OVC,0.00,0.0,WeatherDisplay:10.37,2013-01-23 12:40:00,
2013-01-23 13:50:00,23.5,16.8,29.74,East,96,0.0,0.0,75,0.00,OVC,OVC,0.00,0.0,WeatherDisplay:10.37,2013-01-23 12:50:00,
2013-01-23 14:00:00,23.4,16.6,29.74,East,98,0.0,0.0,75,0.00,OVC,OVC,0.00,0.0,WeatherDisplay:10.37,2013-01-23 13:00:00,
2013-01-23 14:10:00,23.4,16.6,29.74,ESE,105,0.0,0.0,75,0.00,OVC,OVC,0.00,0.0,WeatherDisplay:10.37,2013-01-23 13:10:00,
2013-01-23 14:20:00,23.4,16.6,29.74,ESE,111,0.0,0.0,75,0.00,OVC,OVC,0.00,0.0,WeatherDisplay:10.37,2013-01-23 13:20:00,
2013-01-23 14:30:00,23.4,16.6,29.74,ESE,109,0.0,0.0,75,0.00,OVC,OVC,0.00,0.0,WeatherDisplay:10.37,2013-01-23 13:30:00,
2013-01-23 14:40:00,23.4,16.6,29.74,East,91,0.0,0.0,75,0.00,OVC,OVC,0.00,0.0,WeatherDisplay:10.37,2013-01-23 13:40:00,
2013-01-23 14:50:00,23.5,16.8,29.74,ESE,108,0.0,0.0,75,0.00,OVC,OVC,0.00,0.0,WeatherDisplay:10.37,2013-01-23 13:50:00,
2013-01-23 15:00:00,23.5,16.8,29.74,East,89,0.0,0.0,75,0.00,OVC,OVC,0.00,0.0,WeatherDisplay:10.37,2013-01-23 14:00:00,
2013-01-23 15:10:00,23.5,16.8,29.74,NE,53,0.0,0.0,75,0.00,OVC,OVC,0.00,0.0,WeatherDisplay:10.37,2013-01-23 14:10:00,
2013-01-23 15:20:00,23.0,16.3,29.74,ESE,106,0.0,0.0,75,0.00,OVC,OVC,0.00,0.0,WeatherDisplay:10.37,2013-01-23 14:20:00,
2013-01-23 15:30:00,23.0,16.3,29.74,ESE,111,0.0,0.0,75,0.00,OVC,OVC,0.00,0.0,WeatherDisplay:10.37,2013-01-23 14:30:00,
2013-01-23 15:40:00,23.2,16.4,29.74,NE,38,0.0,0.0,75,0.00,OVC,OVC,0.00,0.0,WeatherDisplay:10.37,2013-01-23 14:40:00,
2013-01-23 15:50:00,22.8,16.1,29.74,North,5,0.0,0.0,75,0.00,OVC,OVC,0.00,0.0,WeatherDisplay:10.37,2013-01-23 14:50:00,
2013-01-23 16:00:00,22.5,15.7,29.74,North,5,0.0,0.0,75,0.00,OVC,OVC,0.00,0.0,WeatherDisplay:10.37,2013-01-23 15:00:00,
2013-01-23 16:10:00,22.3,15.6,29.74,North,5,0.0,0.0,75,0.00,OVC,OVC,0.00,0.0,WeatherDisplay:10.37,2013-01-23 15:10:00,
2013-01-23 16:20:00,22.3,15.6,29.74,ENE,76,0.0,0.0,75,0.00,OVC,OVC,0.00,0.0,WeatherDisplay:10.37,2013-01-23 15:20:00,
2013-01-23 16:30:00,22.3,15.6,29.74,NNE,29,0.0,0.0,75,0.00,OVC,OVC,0.00,0.0,WeatherDisplay:10.37,2013-01-23 15:30:00,
2013-01-23 16:40:00,22.3,15.6,29.77,SSW,200,0.0,0.0,75,0.00,OVC,OVC,0.00,0.0,WeatherDisplay:10.37,2013-01-23 15:40:00,
2013-01-23 16:50:00,21.9,15.2,29.77,SE,133,0.0,0.0,75,0.00,OVC,OVC,0.00,0.0,WeatherDisplay:10.37,2013-01-23 15:50:00,
2013-01-23 16:59:00,21.9,15.2,29.77,ESE,113,0.0,0.0,75,0.00,OVC,OVC,0.00,0.0,WeatherDisplay:10.37,2013-01-23 15:59:00,
2013-01-23 17:10:00,21.9,15.2,29.74,ESE,102,0.0,0.0,75,0.00,OVC,OVC,0.00,0.0,WeatherDisplay:10.37,2013-01-23 16:10:00,
2013-01-23 17:20:00,21.9,15.2,29.74,SE,125,0.0,0.0,75,0.00,OVC,OVC,0.00,0.0,WeatherDisplay:10.37,2013-01-23 16:20:00,
2013-01-23 17:30:00,21.9,15.2,29.74,ESE,104,0.0,0.0,75,0.00,OVC,OVC,0.00,0.0,WeatherDisplay:10.37,2013-01-23 16:30:00,
2013-01-23 17:40:00,21.9,15.5,29.74,ESE,109,0.0,0.0,76,0.00,OVC,OVC,0.00,0.0,WeatherDisplay:10.37,2013-01-23 16:40:00,
2013-01-23 17:50:00,21.7,15.3,29.77,SE,130,0.0,0.0,76,0.00,OVC,OVC,0.00,0.0,WeatherDisplay:10.37,2013-01-23 16:50:00,
2013-01-23 18:00:00,21.7,15.3,29.77,ESE,118,0.0,0.0,76,0.00,OVC,OVC,0.00,0.0,WeatherDisplay:10.37,2013-01-23 17:00:00,
2013-01-23 18:10:00,21.6,15.2,29.74,East,101,0.0,0.0,76,0.00,OVC,OVC,0.00,0.0,WeatherDisplay:10.37,2013-01-23 17:10:00,
2013-01-23 18:20:00,21.4,15.0,29.74,East,90,0.0,0.0,76,0.00,OVC,OVC,0.00,0.0,WeatherDisplay:10.37,2013-01-23 17:20:00,
2013-01-23 18:30:00,21.4,15.0,29.74,East,93,0.0,0.0,76,0.00,OVC,OVC,0.00,0.0,WeatherDisplay:10.37,2013-01-23 17:30:00,
2013-01-23 18:40:00,21.4,15.0,29.74,East,88,0.0,0.0,76,0.00,OVC,OVC,0.00,0.0,WeatherDisplay:10.37,2013-01-23 17:40:00,
2013-01-23 18:50:00,21.4,15.0,29.77,East,92,0.0,0.0,76,0.00,OVC,OVC,0.00,0.0,WeatherDisplay:10.37,2013-01-23 17:50:00,
2013-01-23 19:00:00,21.4,15.0,29.77,ENE,71,0.0,0.0,76,0.00,OVC,OVC,0.00,0.0,WeatherDisplay:10.37,2013-01-23 18:00:00,
2013-01-23 19:10:00,21.4,15.0,29.77,ESE,108,0.0,0.0,76,0.00,-SN,OVC,0.00,0.0,WeatherDisplay:10.37,2013-01-23 18:10:00,
2013-01-23 19:20:00,21.6,15.2,29.74,SE,142,0.0,0.0,76,0.00,-SN,OVC,0.00,0.0,WeatherDisplay:10.37,2013-01-23 18:20:00,
2013-01-23 19:30:00,21.6,15.2,29.74,ESE,108,0.0,0.0,76,0.00,-SN,OVC,0.00,0.0,WeatherDisplay:10.37,2013-01-23 18:30:00,
2013-01-23 19:40:00,21.9,15.5,29.77,ESE,105,0.0,0.0,76,0.00,-SN,OVC,0.00,0.0,WeatherDisplay:10.37,2013-01-23 18:40:00,
2013-01-23 19:50:00,21.9,15.5,29.77,East,95,0.0,0.0,76,0.00,-SN,OVC,0.00,0.0,WeatherDisplay:10.37,2013-01-23 18:50:00,
2013-01-23 20:00:00,21.9,15.5,29.77,East,98,0.0,0.0,76,0.00,-SN,OVC,0.00,0.0,WeatherDisplay:10.37,2013-01-23 19:00:00,
2013-01-23 20:10:00,21.9,15.5,29.77,ESE,111,0.0,0.0,76,0.00,-SN,OVC,0.00,0.0,WeatherDisplay:10.37,2013-01-23 19:10:00,
2013-01-23 20:20:00,21.9,15.5,29.77,ESE,108,0.0,0.0,76,0.00,-SN,OVC,0.00,0.0,WeatherDisplay:10.37,2013-01-23 19:20:00,
2013-01-23 20:30:00,21.9,15.5,29.77,ESE,108,0.0,0.0,76,0.00,-SN,OVC,0.00,0.0,WeatherDisplay:10.37,2013-01-23 19:30:00,
2013-01-23 20:40:00,22.1,15.7,29.77,ESE,120,0.0,0.0,76,0.00,-SN,OVC,0.00,0.0,WeatherDisplay:10.37,2013-01-23 19:40:00,
2013-01-23 20:50:00,21.9,15.5,29.77,ESE,111,0.0,0.0,76,0.00,-SN,OVC,0.00,0.0,WeatherDisplay:10.37,2013-01-23 19:50:00,
2013-01-23 20:59:00,21.9,15.5,29.77,SE,125,0.0,0.0,76,0.00,-SN,OVC,0.00,0.0,WeatherDisplay:10.37,2013-01-23 19:59:00,
2013-01-23 21:10:00,22.1,15.7,29.77,ENE,75,0.0,0.0,76,0.00,-SN,OVC,0.00,0.0,WeatherDisplay:10.37,2013-01-23 20:10:00,
2013-01-23 21:20:00,22.1,15.7,29.77,ESE,106,0.0,0.0,76,0.00,-SN,OVC,0.00,0.0,WeatherDisplay:10.37,2013-01-23 20:20:00,
2013-01-23 21:30:00,22.1,15.7,29.77,ESE,113,0.0,0.0,76,0.00,-SN,OVC,0.00,0.0,WeatherDisplay:10.37,2013-01-23 20:30:00,
2013-01-23 21:40:00,22.3,15.9,29.77,ESE,118,0.0,0.0,76,0.00,-SN,OVC,0.00,0.0,WeatherDisplay:10.37,2013-01-23 20:40:00,
2013-01-23 21:50:00,22.3,15.9,29.77,ESE,106,0.0,0.0,76,0.00,-SN,OVC,0.00,0.0,WeatherDisplay:10.37,2013-01-23 20:50:00,
2013-01-23 21:59:00,22.3,15.9,29.77,ESE,120,0.0,0.0,76,0.00,-SN,OVC,0.00,0.0,WeatherDisplay:10.37,2013-01-23 20:59:00,
2013-01-23 22:10:00,22.3,15.9,29.77,NW,314,0.0,0.0,76,0.00,-SN,OVC,0.00,0.0,WeatherDisplay:10.37,2013-01-23 21:10:00,
2013-01-23 22:20:00,22.3,15.9,29.77,East,81,0.0,0.0,76,0.00,-SN,OVC,0.00,0.0,WeatherDisplay:10.37,2013-01-23 21:20:00,
2013-01-23 22:30:00,22.3,15.9,29.77,NW,326,0.0,0.0,76,0.00,-SN,OVC,0.00,0.0,WeatherDisplay:10.37,2013-01-23 21:30:00,
2013-01-23 22:40:00,22.3,15.9,29.77,NE,49,0.0,0.0,76,0.00,-SN,OVC,0.00,0.0,WeatherDisplay:10.37,2013-01-23 21:40:00,
2013-01-23 22:50:00,22.3,15.9,29.77,NNE,14,0.0,0.0,76,0.00,-SN,OVC,0.00,0.0,WeatherDisplay:10.37,2013-01-23 21:50:00,
2013-01-23 23:00:00,22.3,15.9,29.77,ENE,73,0.0,0.0,76,0.00,-SN,OVC,0.00,0.0,WeatherDisplay:10.37,2013-01-23 22:00:00,
2013-01-23 23:10:00,22.1,15.7,29.77,ENE,62,0.0,0.0,76,0.00,-SN,OVC,0.00,0.0,WeatherDisplay:10.37,2013-01-23 22:10:00,
2013-01-23 23:20:00,22.1,15.7,29.77,ESE,107,0.0,0.0,76,0.00,-SN,OVC,0.00,0.0,WeatherDisplay:10.37,2013-01-23 22:20:00,
2013-01-23 23:30:00,21.9,15.5,29.77,East,101,0.0,0.0,76,0.00,-SN,OVC,0.00,0.0,WeatherDisplay:10.37,2013-01-23 22:30:00,
2013-01-23 23:40:00,21.9,15.5,29.77,ENE,77,0.0,0.0,76,0.00,-SN,OVC,0.00,0.0,WeatherDisplay:10.37,2013-01-23 22:40:00,
2013-01-23 23:50:00,21.9,15.5,29.74,ENE,64,0.0,0.0,76,0.00,-SN,OVC,0.00,0.0,WeatherDisplay:10.37,2013-01-23 22:50:00,